sensor_id;sensor_type;location;lat;lon;timestamp;pressure;altitude;pressure_sealevel;temperature;humidity
67987;BME280;54767;53.800;15.956;2022-11-14T00:01:31;101349.41;;;10.49;77.01
67987;BME280;54767;53.800;15.956;2022-11-14T00:03:59;101349.55;;;10.47;76.88
67987;BME280;54767;53.800;15.956;2022-11-14T00:06:28;101349.34;;;10.45;76.78
67987;BME280;54767;53.800;15.956;2022-11-14T00:08:56;101345.42;;;10.41;76.65
67987;BME280;54767;53.800;15.956;2022-11-14T00:11:24;101342.89;;;10.38;76.78
67987;BME280;54767;53.800;15.956;2022-11-14T00:13:53;101341.63;;;10.35;76.92
67987;BME280;54767;53.800;15.956;2022-11-14T00:16:21;101343.17;;;10.35;76.98
67987;BME280;54767;53.800;15.956;2022-11-14T00:18:49;101335.13;;;10.35;76.62
67987;BME280;54767;53.800;15.956;2022-11-14T00:21:19;101334.60;;;10.35;76.88
67987;BME280;54767;53.800;15.956;2022-11-14T00:23:48;101331.10;;;10.35;76.93
67987;BME280;54767;53.800;15.956;2022-11-14T00:26:19;101327.27;;;10.35;76.93
67987;BME280;54767;53.800;15.956;2022-11-14T00:28:47;101323.75;;;10.35;77.06
67987;BME280;54767;53.800;15.956;2022-11-14T00:31:17;101319.56;;;10.35;76.76
67987;BME280;54767;53.800;15.956;2022-11-14T00:33:45;101319.66;;;10.32;76.72
67987;BME280;54767;53.800;15.956;2022-11-14T00:36:14;101314.87;;;10.28;76.46
67987;BME280;54767;53.800;15.956;2022-11-14T00:38:42;101317.39;;;10.24;76.78
67987;BME280;54767;53.800;15.956;2022-11-14T00:41:10;101317.67;;;10.22;76.79
67987;BME280;54767;53.800;15.956;2022-11-14T00:43:39;101312.98;;;10.23;76.83
67987;BME280;54767;53.800;15.956;2022-11-14T00:46:07;101310.40;;;10.25;76.71
67987;BME280;54767;53.800;15.956;2022-11-14T00:48:35;101308.85;;;10.26;76.77
67987;BME280;54767;53.800;15.956;2022-11-14T00:51:04;101306.74;;;10.26;76.48
67987;BME280;54767;53.800;15.956;2022-11-14T00:53:32;101302.54;;;10.25;76.59
67987;BME280;54767;53.800;15.956;2022-11-14T00:56:02;101304.02;;;10.22;76.52
67987;BME280;54767;53.800;15.956;2022-11-14T00:58:30;101305.40;;;10.20;76.65
67987;BME280;54767;53.800;15.956;2022-11-14T01:00:59;101302.10;;;10.21;76.72
67987;BME280;54767;53.800;15.956;2022-11-14T01:03:27;101299.85;;;10.22;76.67
67987;BME280;54767;53.800;15.956;2022-11-14T01:05:56;101295.64;;;10.22;76.57
67987;BME280;54767;53.800;15.956;2022-11-14T01:08:24;101293.39;;;10.23;76.74
67987;BME280;54767;53.800;15.956;2022-11-14T01:10:52;101293.20;;;10.23;76.72
67987;BME280;54767;53.800;15.956;2022-11-14T01:13:20;101291.98;;;10.23;76.60
67987;BME280;54767;53.800;15.956;2022-11-14T01:15:49;101288.66;;;10.23;76.64
67987;BME280;54767;53.800;15.956;2022-11-14T01:18:20;101288.48;;;10.22;76.40
67987;BME280;54767;53.800;15.956;2022-11-14T01:20:48;101285.34;;;10.23;76.42
67987;BME280;54767;53.800;15.956;2022-11-14T01:23:17;101283.55;;;10.21;76.54
67987;BME280;54767;53.800;15.956;2022-11-14T01:25:45;101288.75;;;10.18;76.31
67987;BME280;54767;53.800;15.956;2022-11-14T01:28:16;101290.99;;;10.16;76.26
67987;BME280;54767;53.800;15.956;2022-11-14T01:30:46;101282.77;;;10.17;76.26
67987;BME280;54767;53.800;15.956;2022-11-14T01:33:14;101279.11;;;10.17;75.99
67987;BME280;54767;53.800;15.956;2022-11-14T01:35:42;101280.80;;;10.15;76.33
67987;BME280;54767;53.800;15.956;2022-11-14T01:38:13;101278.84;;;10.13;76.32
67987;BME280;54767;53.800;15.956;2022-11-14T01:40:43;101282.52;;;10.13;76.29
67987;BME280;54767;53.800;15.956;2022-11-14T01:45:58;101281.36;;;10.17;76.30
67987;BME280;54767;53.800;15.956;2022-11-14T01:49:04;101274.38;;;10.17;76.23
67987;BME280;54767;53.800;15.956;2022-11-14T01:51:48;101265.76;;;10.15;76.36
67987;BME280;54767;53.800;15.956;2022-11-14T01:54:24;101266.42;;;10.13;76.33
67987;BME280;54767;53.800;15.956;2022-11-14T01:56:58;101263.92;;;10.11;76.22
67987;BME280;54767;53.800;15.956;2022-11-14T01:59:35;101260.00;;;10.07;75.99
67987;BME280;54767;53.800;15.956;2022-11-14T02:02:19;101257.20;;;10.07;76.14
67987;BME280;54767;53.800;15.956;2022-11-14T02:04:53;101249.77;;;10.03;75.98
67987;BME280;54767;53.800;15.956;2022-11-14T02:07:24;101248.67;;;10.01;76.10
67987;BME280;54767;53.800;15.956;2022-11-14T02:09:54;101249.93;;;10.02;76.14
67987;BME280;54767;53.800;15.956;2022-11-14T02:12:23;101248.02;;;10.02;76.14
67987;BME280;54767;53.800;15.956;2022-11-14T02:14:55;101245.75;;;10.03;76.17
67987;BME280;54767;53.800;15.956;2022-11-14T02:17:25;101241.77;;;10.05;76.07
67987;BME280;54767;53.800;15.956;2022-11-14T02:22:36;101239.34;;;10.05;76.29
67987;BME280;54767;53.800;15.956;2022-11-14T02:25:09;101234.04;;;10.03;76.10
67987;BME280;54767;53.800;15.956;2022-11-14T02:27:40;101231.59;;;10.03;75.90
67987;BME280;54767;53.800;15.956;2022-11-14T02:30:12;101228.44;;;10.03;76.01
67987;BME280;54767;53.800;15.956;2022-11-14T02:32:41;101227.39;;;10.03;76.08
67987;BME280;54767;53.800;15.956;2022-11-14T02:35:29;101224.41;;;10.02;76.15
67987;BME280;54767;53.800;15.956;2022-11-14T02:37:57;101219.48;;;10.00;76.03
67987;BME280;54767;53.800;15.956;2022-11-14T02:40:26;101212.79;;;9.98;76.17
67987;BME280;54767;53.800;15.956;2022-11-14T02:42:54;101211.57;;;9.99;76.13
67987;BME280;54767;53.800;15.956;2022-11-14T02:45:23;101205.95;;;9.98;75.92
67987;BME280;54767;53.800;15.956;2022-11-14T02:47:52;101205.02;;;9.95;75.81
67987;BME280;54767;53.800;15.956;2022-11-14T02:50:20;101203.88;;;9.90;75.71
67987;BME280;54767;53.800;15.956;2022-11-14T02:52:49;101204.35;;;9.88;75.94
67987;BME280;54767;53.800;15.956;2022-11-14T02:55:17;101196.59;;;9.85;75.96
67987;BME280;54767;53.800;15.956;2022-11-14T02:57:45;101189.93;;;9.84;75.74
67987;BME280;54767;53.800;15.956;2022-11-14T03:00:14;101184.14;;;9.82;75.69
67987;BME280;54767;53.800;15.956;2022-11-14T03:02:42;101178.89;;;9.82;75.75
67987;BME280;54767;53.800;15.956;2022-11-14T03:05:11;101177.14;;;9.83;75.96
67987;BME280;54767;53.800;15.956;2022-11-14T03:07:39;101180.46;;;9.82;75.90
67987;BME280;54767;53.800;15.956;2022-11-14T03:10:08;101180.69;;;9.84;76.21
67987;BME280;54767;53.800;15.956;2022-11-14T03:12:36;101176.90;;;9.88;76.15
67987;BME280;54767;53.800;15.956;2022-11-14T03:15:05;101176.09;;;9.90;75.72
67987;BME280;54767;53.800;15.956;2022-11-14T03:17:34;101172.42;;;9.91;75.82
67987;BME280;54767;53.800;15.956;2022-11-14T03:20:03;101171.36;;;9.91;75.90
67987;BME280;54767;53.800;15.956;2022-11-14T03:22:31;101169.41;;;9.88;75.86
67987;BME280;54767;53.800;15.956;2022-11-14T03:25:00;101166.71;;;9.86;75.68
67987;BME280;54767;53.800;15.956;2022-11-14T03:27:28;101169.86;;;9.85;75.71
67987;BME280;54767;53.800;15.956;2022-11-14T03:29:56;101170.56;;;9.86;75.81
67987;BME280;54767;53.800;15.956;2022-11-14T03:32:25;101167.73;;;9.83;75.56
67987;BME280;54767;53.800;15.956;2022-11-14T03:34:53;101158.02;;;9.80;75.45
67987;BME280;54767;53.800;15.956;2022-11-14T03:37:21;101156.92;;;9.76;75.53
67987;BME280;54767;53.800;15.956;2022-11-14T03:39:50;101154.05;;;9.73;75.66
67987;BME280;54767;53.800;15.956;2022-11-14T03:42:18;101153.70;;;9.72;75.55
67987;BME280;54767;53.800;15.956;2022-11-14T03:44:46;101156.85;;;9.72;75.80
67987;BME280;54767;53.800;15.956;2022-11-14T03:47:15;101146.65;;;9.70;75.66
67987;BME280;54767;53.800;15.956;2022-11-14T03:49:43;101144.14;;;9.67;75.70
67987;BME280;54767;53.800;15.956;2022-11-14T03:52:12;101142.02;;;9.65;75.73
67987;BME280;54767;53.800;15.956;2022-11-14T03:54:40;101146.08;;;9.67;75.76
67987;BME280;54767;53.800;15.956;2022-11-14T03:57:08;101152.61;;;9.70;75.79
67987;BME280;54767;53.800;15.956;2022-11-14T03:59:37;101147.08;;;9.73;75.71
67987;BME280;54767;53.800;15.956;2022-11-14T04:02:05;101140.44;;;9.73;75.63
67987;BME280;54767;53.800;15.956;2022-11-14T04:04:33;101136.52;;;9.70;75.79
67987;BME280;54767;53.800;15.956;2022-11-14T04:07:02;101130.23;;;9.70;75.58
67987;BME280;54767;53.800;15.956;2022-11-14T04:09:30;101129.20;;;9.71;75.78
67987;BME280;54767;53.800;15.956;2022-11-14T04:11:58;101130.67;;;9.75;75.80
67987;BME280;54767;53.800;15.956;2022-11-14T04:14:27;101130.04;;;9.78;75.92
67987;BME280;54767;53.800;15.956;2022-11-14T04:16:55;101126.77;;;9.81;75.99
67987;BME280;54767;53.800;15.956;2022-11-14T04:19:23;101124.33;;;9.81;75.72
67987;BME280;54767;53.800;15.956;2022-11-14T04:21:52;101125.30;;;9.78;75.71
67987;BME280;54767;53.800;15.956;2022-11-14T04:24:20;101124.71;;;9.75;75.51
67987;BME280;54767;53.800;15.956;2022-11-14T04:26:48;101118.05;;;9.73;75.77
67987;BME280;54767;53.800;15.956;2022-11-14T04:29:17;101117.85;;;9.71;75.57
67987;BME280;54767;53.800;15.956;2022-11-14T04:31:45;101113.78;;;9.69;75.40
67987;BME280;54767;53.800;15.956;2022-11-14T04:34:13;101110.94;;;9.67;75.31
67987;BME280;54767;53.800;15.956;2022-11-14T04:36:42;101107.57;;;9.65;75.74
67987;BME280;54767;53.800;15.956;2022-11-14T04:39:10;101099.64;;;9.61;75.50
67987;BME280;54767;53.800;15.956;2022-11-14T04:41:39;101097.84;;;9.59;75.24
67987;BME280;54767;53.800;15.956;2022-11-14T04:44:07;101093.28;;;9.58;75.25
67987;BME280;54767;53.800;15.956;2022-11-14T04:46:35;101092.53;;;9.56;75.35
67987;BME280;54767;53.800;15.956;2022-11-14T04:49:04;101092.69;;;9.54;75.58
67987;BME280;54767;53.800;15.956;2022-11-14T04:51:32;101091.97;;;9.53;75.58
67987;BME280;54767;53.800;15.956;2022-11-14T04:54:00;101088.41;;;9.50;75.54
67987;BME280;54767;53.800;15.956;2022-11-14T04:56:29;101087.70;;;9.49;75.61
67987;BME280;54767;53.800;15.956;2022-11-14T04:58:57;101085.27;;;9.51;75.88
67987;BME280;54767;53.800;15.956;2022-11-14T05:01:25;101083.58;;;9.53;75.67
67987;BME280;54767;53.800;15.956;2022-11-14T05:03:54;101076.95;;;9.54;75.85
67987;BME280;54767;53.800;15.956;2022-11-14T05:06:22;101079.08;;;9.55;75.75
67987;BME280;54767;53.800;15.956;2022-11-14T05:08:51;101081.36;;;9.56;75.64
67987;BME280;54767;53.800;15.956;2022-11-14T05:11:20;101083.45;;;9.56;75.79
67987;BME280;54767;53.800;15.956;2022-11-14T05:13:54;101085.02;;;9.56;75.68
67987;BME280;54767;53.800;15.956;2022-11-14T05:16:23;101078.38;;;9.55;75.71
67987;BME280;54767;53.800;15.956;2022-11-14T05:18:52;101085.02;;;9.55;75.53
67987;BME280;54767;53.800;15.956;2022-11-14T05:21:21;101084.81;;;9.54;75.58
67987;BME280;54767;53.800;15.956;2022-11-14T05:23:50;101081.59;;;9.49;75.63
67987;BME280;54767;53.800;15.956;2022-11-14T05:26:18;101079.27;;;9.47;75.59
67987;BME280;54767;53.800;15.956;2022-11-14T05:28:46;101078.89;;;9.45;75.55
67987;BME280;54767;53.800;15.956;2022-11-14T05:31:15;101077.67;;;9.46;75.72
67987;BME280;54767;53.800;15.956;2022-11-14T05:33:46;101075.40;;;9.46;75.43
67987;BME280;54767;53.800;15.956;2022-11-14T05:36:15;101074.10;;;9.42;75.43
67987;BME280;54767;53.800;15.956;2022-11-14T05:38:44;101072.12;;;9.39;75.47
67987;BME280;54767;53.800;15.956;2022-11-14T05:41:14;101072.79;;;9.38;75.66
67987;BME280;54767;53.800;15.956;2022-11-14T05:43:43;101074.00;;;9.37;75.60
67987;BME280;54767;53.800;15.956;2022-11-14T05:46:13;101074.20;;;9.38;75.55
67987;BME280;54767;53.800;15.956;2022-11-14T05:48:42;101074.88;;;9.37;75.48
67987;BME280;54767;53.800;15.956;2022-11-14T05:51:12;101071.36;;;9.37;75.58
67987;BME280;54767;53.800;15.956;2022-11-14T05:53:40;101073.09;;;9.36;75.66
67987;BME280;54767;53.800;15.956;2022-11-14T05:56:11;101073.77;;;9.35;75.62
67987;BME280;54767;53.800;15.956;2022-11-14T05:58:40;101071.97;;;9.32;75.44
67987;BME280;54767;53.800;15.956;2022-11-14T06:01:10;101077.16;;;9.30;75.36
67987;BME280;54767;53.800;15.956;2022-11-14T06:03:40;101076.83;;;9.30;75.55
67987;BME280;54767;53.800;15.956;2022-11-14T06:06:12;101078.55;;;9.29;75.45
67987;BME280;54767;53.800;15.956;2022-11-14T06:08:41;101077.97;;;9.26;75.28
67987;BME280;54767;53.800;15.956;2022-11-14T06:11:17;101078.05;;;9.22;75.30
67987;BME280;54767;53.800;15.956;2022-11-14T06:13:46;101075.85;;;9.17;75.42
67987;BME280;54767;53.800;15.956;2022-11-14T06:16:17;101074.92;;;9.14;75.31
67987;BME280;54767;53.800;15.956;2022-11-14T06:18:46;101079.95;;;9.12;75.44
67987;BME280;54767;53.800;15.956;2022-11-14T06:21:16;101079.92;;;9.12;75.59
67987;BME280;54767;53.800;15.956;2022-11-14T06:23:46;101081.81;;;9.10;75.39
67987;BME280;54767;53.800;15.956;2022-11-14T06:26:27;101079.52;;;9.09;75.79
67987;BME280;54767;53.800;15.956;2022-11-14T06:28:59;101081.60;;;9.08;75.54
67987;BME280;54767;53.800;15.956;2022-11-14T06:31:27;101079.15;;;9.08;75.60
67987;BME280;54767;53.800;15.956;2022-11-14T06:33:56;101077.27;;;9.09;75.54
67987;BME280;54767;53.800;15.956;2022-11-14T06:36:24;101081.30;;;9.11;75.93
67987;BME280;54767;53.800;15.956;2022-11-14T06:38:52;101083.90;;;9.10;75.57
67987;BME280;54767;53.800;15.956;2022-11-14T06:41:21;101085.81;;;9.09;75.38
67987;BME280;54767;53.800;15.956;2022-11-14T06:43:50;101087.04;;;9.09;75.63
67987;BME280;54767;53.800;15.956;2022-11-14T06:46:21;101086.88;;;9.10;75.49
67987;BME280;54767;53.800;15.956;2022-11-14T06:48:50;101085.86;;;9.11;75.70
67987;BME280;54767;53.800;15.956;2022-11-14T06:51:19;101083.26;;;9.12;75.52
67987;BME280;54767;53.800;15.956;2022-11-14T06:53:47;101082.36;;;9.11;75.62
67987;BME280;54767;53.800;15.956;2022-11-14T06:56:16;101080.94;;;9.11;75.72
67987;BME280;54767;53.800;15.956;2022-11-14T06:58:47;101081.30;;;9.11;75.64
67987;BME280;54767;53.800;15.956;2022-11-14T07:01:19;101088.14;;;9.12;75.54
67987;BME280;54767;53.800;15.956;2022-11-14T07:03:48;101086.03;;;9.11;75.36
67987;BME280;54767;53.800;15.956;2022-11-14T07:06:22;101082.54;;;9.12;75.39
67987;BME280;54767;53.800;15.956;2022-11-14T07:08:51;101083.55;;;9.10;75.52
67987;BME280;54767;53.800;15.956;2022-11-14T07:11:25;101085.21;;;9.06;75.21
67987;BME280;54767;53.800;15.956;2022-11-14T07:14:00;101082.71;;;9.03;75.39
67987;BME280;54767;53.800;15.956;2022-11-14T07:16:31;101081.98;;;9.02;75.22
67987;BME280;54767;53.800;15.956;2022-11-14T07:19:01;101081.27;;;9.01;75.35
67987;BME280;54767;53.800;15.956;2022-11-14T07:21:30;101078.98;;;8.99;75.38
67987;BME280;54767;53.800;15.956;2022-11-14T07:23:59;101081.38;;;8.97;75.46
67987;BME280;54767;53.800;15.956;2022-11-14T07:26:27;101079.77;;;8.96;75.23
67987;BME280;54767;53.800;15.956;2022-11-14T07:28:55;101082.42;;;8.97;75.45
67987;BME280;54767;53.800;15.956;2022-11-14T07:31:29;101081.38;;;8.99;75.43
67987;BME280;54767;53.800;15.956;2022-11-14T07:33:57;101081.61;;;9.00;75.42
67987;BME280;54767;53.800;15.956;2022-11-14T07:36:26;101084.23;;;9.01;75.30
67987;BME280;54767;53.800;15.956;2022-11-14T07:38:54;101083.84;;;8.99;75.32
67987;BME280;54767;53.800;15.956;2022-11-14T07:41:23;101085.73;;;8.97;75.10
67987;BME280;54767;53.800;15.956;2022-11-14T07:43:51;101085.67;;;8.95;75.29
67987;BME280;54767;53.800;15.956;2022-11-14T07:46:19;101075.73;;;8.95;75.20
67987;BME280;54767;53.800;15.956;2022-11-14T07:48:47;101075.95;;;8.97;75.36
67987;BME280;54767;53.800;15.956;2022-11-14T07:51:18;101074.95;;;8.99;75.53
67987;BME280;54767;53.800;15.956;2022-11-14T07:53:46;101074.28;;;9.01;75.56
67987;BME280;54767;53.800;15.956;2022-11-14T07:56:15;101073.02;;;8.99;75.28
67987;BME280;54767;53.800;15.956;2022-11-14T07:58:44;101069.98;;;8.95;75.20
67987;BME280;54767;53.800;15.956;2022-11-14T08:01:13;101069.64;;;8.96;75.28
67987;BME280;54767;53.800;15.956;2022-11-14T08:03:42;101069.85;;;8.97;75.13
67987;BME280;54767;53.800;15.956;2022-11-14T08:06:15;101068.45;;;8.97;75.21
67987;BME280;54767;53.800;15.956;2022-11-14T08:08:43;101067.74;;;8.97;75.33
67987;BME280;54767;53.800;15.956;2022-11-14T08:11:11;101063.16;;;8.95;75.46
67987;BME280;54767;53.800;15.956;2022-11-14T08:13:50;101062.70;;;8.99;75.36
67987;BME280;54767;53.800;15.956;2022-11-14T08:16:18;101057.34;;;9.00;75.42
67987;BME280;54767;53.800;15.956;2022-11-14T08:18:47;101055.74;;;8.99;75.14
67987;BME280;54767;53.800;15.956;2022-11-14T08:21:15;101056.98;;;9.00;75.41
67987;BME280;54767;53.800;15.956;2022-11-14T08:23:43;101061.89;;;9.01;75.34
67987;BME280;54767;53.800;15.956;2022-11-14T08:26:12;101057.33;;;9.00;75.26
67987;BME280;54767;53.800;15.956;2022-11-14T08:28:41;101058.35;;;8.99;75.43
67987;BME280;54767;53.800;15.956;2022-11-14T08:31:09;101054.89;;;9.00;75.33
67987;BME280;54767;53.800;15.956;2022-11-14T08:33:38;101055.08;;;9.01;75.24
67987;BME280;54767;53.800;15.956;2022-11-14T08:36:07;101054.94;;;9.03;75.31
67987;BME280;54767;53.800;15.956;2022-11-14T08:38:35;101048.48;;;9.03;75.53
67987;BME280;54767;53.800;15.956;2022-11-14T08:41:04;101042.86;;;9.01;75.29
67987;BME280;54767;53.800;15.956;2022-11-14T08:43:32;101041.98;;;9.00;75.30
67987;BME280;54767;53.800;15.956;2022-11-14T08:46:02;101041.13;;;9.01;75.17
67987;BME280;54767;53.800;15.956;2022-11-14T08:48:31;101045.34;;;9.02;75.24
67987;BME280;54767;53.800;15.956;2022-11-14T08:51:05;101048.30;;;9.02;75.38
67987;BME280;54767;53.800;15.956;2022-11-14T08:53:34;101040.73;;;9.00;75.19
67987;BME280;54767;53.800;15.956;2022-11-14T08:56:02;101037.08;;;9.00;75.37
67987;BME280;54767;53.800;15.956;2022-11-14T08:58:31;101031.52;;;9.01;75.03
67987;BME280;54767;53.800;15.956;2022-11-14T09:01:02;101031.86;;;9.01;75.16
67987;BME280;54767;53.800;15.956;2022-11-14T09:03:30;101029.58;;;9.00;74.99
67987;BME280;54767;53.800;15.956;2022-11-14T09:06:00;101031.67;;;9.00;75.13
67987;BME280;54767;53.800;15.956;2022-11-14T09:08:29;101030.47;;;9.01;75.25
67987;BME280;54767;53.800;15.956;2022-11-14T09:11:02;101026.98;;;9.02;75.39
67987;BME280;54767;53.800;15.956;2022-11-14T09:13:33;101028.78;;;9.04;75.25
67987;BME280;54767;53.800;15.956;2022-11-14T09:16:02;101030.05;;;9.06;75.18
67987;BME280;54767;53.800;15.956;2022-11-14T09:18:31;101032.69;;;9.08;75.31
67987;BME280;54767;53.800;15.956;2022-11-14T09:21:01;101027.14;;;9.09;75.28
67987;BME280;54767;53.800;15.956;2022-11-14T09:23:31;101020.17;;;9.11;75.28
67987;BME280;54767;53.800;15.956;2022-11-14T09:26:04;101017.61;;;9.12;75.33
67987;BME280;54767;53.800;15.956;2022-11-14T09:28:33;101018.87;;;9.14;75.13
67987;BME280;54767;53.800;15.956;2022-11-14T09:31:02;101009.45;;;9.14;75.15
67987;BME280;54767;53.800;15.956;2022-11-14T09:33:32;101011.40;;;9.17;75.29
67987;BME280;54767;53.800;15.956;2022-11-14T09:36:03;101003.59;;;9.19;75.21
67987;BME280;54767;53.800;15.956;2022-11-14T09:38:33;101005.70;;;9.20;75.28
67987;BME280;54767;53.800;15.956;2022-11-14T09:41:22;100999.74;;;9.19;75.03
67987;BME280;54767;53.800;15.956;2022-11-14T09:44:14;100999.39;;;9.18;75.22
67987;BME280;54767;53.800;15.956;2022-11-14T09:46:53;100997.16;;;9.20;75.13
67987;BME280;54767;53.800;15.956;2022-11-14T09:49:34;100997.73;;;9.23;75.04
67987;BME280;54767;53.800;15.956;2022-11-14T09:54:52;100991.48;;;9.25;75.16
67987;BME280;54767;53.800;15.956;2022-11-14T09:57:23;100987.27;;;9.24;75.04
67987;BME280;54767;53.800;15.956;2022-11-14T09:59:53;100980.82;;;9.24;75.03
67987;BME280;54767;53.800;15.956;2022-11-14T10:02:39;100976.51;;;9.27;75.15
67987;BME280;54767;53.800;15.956;2022-11-14T10:05:36;100973.54;;;9.27;74.77
67987;BME280;54767;53.800;15.956;2022-11-14T10:11:00;100976.13;;;9.26;74.90
67987;BME280;54767;53.800;15.956;2022-11-14T10:16:31;100974.86;;;9.23;74.88
67987;BME280;54767;53.800;15.956;2022-11-14T10:21:55;100971.61;;;9.27;74.71
67987;BME280;54767;53.800;15.956;2022-11-14T10:27:40;100969.15;;;9.26;74.59
67987;BME280;54767;53.800;15.956;2022-11-14T10:30:13;100968.90;;;9.22;74.69
67987;BME280;54767;53.800;15.956;2022-11-14T10:35:34;100962.94;;;9.21;74.71
67987;BME280;54767;53.800;15.956;2022-11-14T10:38:19;100960.44;;;9.18;74.76
67987;BME280;54767;53.800;15.956;2022-11-14T10:40:54;100950.65;;;9.18;74.85
67987;BME280;54767;53.800;15.956;2022-11-14T10:43:35;100948.52;;;9.16;74.79
67987;BME280;54767;53.800;15.956;2022-11-14T10:48:44;100942.58;;;9.16;74.78
67987;BME280;54767;53.800;15.956;2022-11-14T10:51:33;100946.13;;;9.19;74.82
67987;BME280;54767;53.800;15.956;2022-11-14T10:56:45;100945.29;;;9.21;74.72
67987;BME280;54767;53.800;15.956;2022-11-14T10:59:13;100941.79;;;9.19;74.78
67987;BME280;54767;53.800;15.956;2022-11-14T11:01:43;100944.73;;;9.18;74.83
67987;BME280;54767;53.800;15.956;2022-11-14T11:04:26;100942.29;;;9.19;74.75
67987;BME280;54767;53.800;15.956;2022-11-14T11:09:36;100946.77;;;9.25;74.84
67987;BME280;54767;53.800;15.956;2022-11-14T11:12:24;100948.27;;;9.31;74.86
67987;BME280;54767;53.800;15.956;2022-11-14T11:15:27;100944.64;;;9.33;75.16
67987;BME280;54767;53.800;15.956;2022-11-14T11:18:08;100944.17;;;9.36;75.02
67987;BME280;54767;53.800;15.956;2022-11-14T11:21:02;100938.33;;;9.40;74.77
67987;BME280;54767;53.800;15.956;2022-11-14T11:23:31;100934.20;;;9.45;74.50
67987;BME280;54767;53.800;15.956;2022-11-14T11:26:17;100934.94;;;9.46;74.44
67987;BME280;54767;53.800;15.956;2022-11-14T11:31:57;100929.10;;;9.43;74.32
67987;BME280;54767;53.800;15.956;2022-11-14T11:34:29;100917.71;;;9.40;74.40
67987;BME280;54767;53.800;15.956;2022-11-14T11:37:12;100912.82;;;9.40;74.35
67987;BME280;54767;53.800;15.956;2022-11-14T11:39:52;100909.52;;;9.43;74.40
67987;BME280;54767;53.800;15.956;2022-11-14T11:42:32;100910.09;;;9.45;74.32
67987;BME280;54767;53.800;15.956;2022-11-14T11:45:21;100911.33;;;9.45;74.16
67987;BME280;54767;53.800;15.956;2022-11-14T11:48:00;100910.09;;;9.45;74.11
67987;BME280;54767;53.800;15.956;2022-11-14T11:50:28;100900.14;;;9.44;74.08
67987;BME280;54767;53.800;15.956;2022-11-14T11:56:15;100890.27;;;9.50;74.34
67987;BME280;54767;53.800;15.956;2022-11-14T11:58:50;100889.95;;;9.52;74.36
67987;BME280;54767;53.800;15.956;2022-11-14T12:01:19;100887.89;;;9.54;74.39
67987;BME280;54767;53.800;15.956;2022-11-14T12:03:50;100883.20;;;9.56;74.20
67987;BME280;54767;53.800;15.956;2022-11-14T12:06:21;100880.58;;;9.56;74.22
67987;BME280;54767;53.800;15.956;2022-11-14T12:09:26;100873.79;;;9.57;74.27
67987;BME280;54767;53.800;15.956;2022-11-14T12:12:26;100865.61;;;9.60;74.27
67987;BME280;54767;53.800;15.956;2022-11-14T12:15:16;100867.60;;;9.64;74.15
67987;BME280;54767;53.800;15.956;2022-11-14T12:21:09;100850.59;;;9.60;74.13
67987;BME280;54767;53.800;15.956;2022-11-14T12:26:45;100849.50;;;9.57;74.10
67987;BME280;54767;53.800;15.956;2022-11-14T12:29:24;100857.95;;;9.61;74.14
67987;BME280;54767;53.800;15.956;2022-11-14T12:32:04;100856.42;;;9.63;74.14
67987;BME280;54767;53.800;15.956;2022-11-14T12:34:37;100855.90;;;9.65;74.20
67987;BME280;54767;53.800;15.956;2022-11-14T12:37:12;100854.69;;;9.66;74.15
67987;BME280;54767;53.800;15.956;2022-11-14T12:39:57;100850.14;;;9.65;73.86
67987;BME280;54767;53.800;15.956;2022-11-14T12:42:26;100843.31;;;9.64;73.82
67987;BME280;54767;53.800;15.956;2022-11-14T12:44:55;100841.39;;;9.64;73.72
67987;BME280;54767;53.800;15.956;2022-11-14T12:47:24;100842.30;;;9.66;73.78
67987;BME280;54767;53.800;15.956;2022-11-14T13:00:57;100829.19;;;9.66;73.59
67987;BME280;54767;53.800;15.956;2022-11-14T13:06:37;100827.73;;;9.62;73.75
67987;BME280;54767;53.800;15.956;2022-11-14T13:09:30;100821.77;;;9.60;73.71
67987;BME280;54767;53.800;15.956;2022-11-14T13:12:24;100818.04;;;9.56;73.80
67987;BME280;54767;53.800;15.956;2022-11-14T13:15:27;100818.88;;;9.55;73.86
67987;BME280;54767;53.800;15.956;2022-11-14T13:18:20;100822.01;;;9.54;73.70
67987;BME280;54767;53.800;15.956;2022-11-14T13:21:27;100819.59;;;9.55;73.90
67987;BME280;54767;53.800;15.956;2022-11-14T13:24:18;100821.70;;;9.57;73.98
67987;BME280;54767;53.800;15.956;2022-11-14T13:26:51;100815.39;;;9.55;73.93
67987;BME280;54767;53.800;15.956;2022-11-14T13:32:10;100810.31;;;9.54;73.78
67987;BME280;54767;53.800;15.956;2022-11-14T13:34:58;100812.95;;;9.56;73.96
67987;BME280;54767;53.800;15.956;2022-11-14T13:50:55;100797.85;;;9.62;73.78
67987;BME280;54767;53.800;15.956;2022-11-14T13:53:45;100791.95;;;9.64;73.75
67987;BME280;54767;53.800;15.956;2022-11-14T13:56:41;100793.48;;;9.63;73.59
67987;BME280;54767;53.800;15.956;2022-11-14T14:13:09;100783.13;;;9.37;73.61
67987;BME280;54767;53.800;15.956;2022-11-14T14:21:35;100783.14;;;9.26;73.93
67987;BME280;54767;53.800;15.956;2022-11-14T14:32:27;100771.33;;;9.19;73.71
67987;BME280;54767;53.800;15.956;2022-11-14T14:34:55;100767.10;;;9.17;73.96
67987;BME280;54767;53.800;15.956;2022-11-14T14:37:28;100760.45;;;9.16;73.95
67987;BME280;54767;53.800;15.956;2022-11-14T14:40:02;100755.17;;;9.13;73.90
67987;BME280;54767;53.800;15.956;2022-11-14T14:42:39;100754.28;;;9.13;73.92
67987;BME280;54767;53.800;15.956;2022-11-14T14:45:19;100748.88;;;9.13;73.88
67987;BME280;54767;53.800;15.956;2022-11-14T14:47:48;100743.65;;;9.14;74.16
67987;BME280;54767;53.800;15.956;2022-11-14T14:50:20;100740.65;;;9.12;73.96
67987;BME280;54767;53.800;15.956;2022-11-14T14:53:00;100734.70;;;9.11;74.09
67987;BME280;54767;53.800;15.956;2022-11-14T14:55:31;100733.64;;;9.10;74.12